sensor_id;sensor_type;location;lat;lon;timestamp;P1;durP1;ratioP1;P2;durP2;ratioP2
67248;SDS011;63247;54.300;18.592;2024-03-08T00:01:35;106.07;;;40.13;;
67248;SDS011;63247;54.300;18.592;2024-03-08T00:04:00;117.05;;;44.33;;
67248;SDS011;63247;54.300;18.592;2024-03-08T00:06:26;100.50;;;37.27;;
67248;SDS011;63247;54.300;18.592;2024-03-08T00:08:51;95.70;;;34.80;;
67248;SDS011;63247;54.300;18.592;2024-03-08T00:11:17;92.17;;;33.63;;
67248;SDS011;63247;54.300;18.592;2024-03-08T00:13:42;100.17;;;36.83;;
67248;SDS011;63247;54.300;18.592;2024-03-08T00:16:10;107.82;;;38.60;;
67248;SDS011;63247;54.300;18.592;2024-03-08T00:18:35;103.63;;;39.20;;
67248;SDS011;63247;54.300;18.592;2024-03-08T00:21:00;105.63;;;39.87;;
67248;SDS011;63247;54.300;18.592;2024-03-08T00:23:26;107.67;;;40.43;;
67248;SDS011;63247;54.300;18.592;2024-03-08T00:25:53;105.07;;;39.65;;
67248;SDS011;63247;54.300;18.592;2024-03-08T00:28:19;105.43;;;37.95;;
67248;SDS011;63247;54.300;18.592;2024-03-08T00:30:45;105.17;;;38.60;;
67248;SDS011;63247;54.300;18.592;2024-03-08T00:33:11;107.47;;;40.65;;
67248;SDS011;63247;54.300;18.592;2024-03-08T00:35:37;101.17;;;38.60;;
67248;SDS011;63247;54.300;18.592;2024-03-08T00:38:02;104.50;;;40.30;;
67248;SDS011;63247;54.300;18.592;2024-03-08T00:40:28;100.70;;;38.20;;
67248;SDS011;63247;54.300;18.592;2024-03-08T00:42:54;106.00;;;41.13;;
67248;SDS011;63247;54.300;18.592;2024-03-08T00:45:19;96.32;;;35.95;;
67248;SDS011;63247;54.300;18.592;2024-03-08T00:47:44;93.15;;;37.08;;
67248;SDS011;63247;54.300;18.592;2024-03-08T00:50:10;100.23;;;38.83;;
67248;SDS011;63247;54.300;18.592;2024-03-08T00:52:36;99.27;;;38.10;;
67248;SDS011;63247;54.300;18.592;2024-03-08T00:55:02;107.07;;;39.80;;
67248;SDS011;63247;54.300;18.592;2024-03-08T00:57:28;99.45;;;37.97;;
67248;SDS011;63247;54.300;18.592;2024-03-08T00:59:53;99.07;;;37.27;;
67248;SDS011;63247;54.300;18.592;2024-03-08T01:02:19;88.73;;;32.37;;
67248;SDS011;63247;54.300;18.592;2024-03-08T01:04:46;88.32;;;33.08;;
67248;SDS011;63247;54.300;18.592;2024-03-08T01:07:12;81.93;;;31.88;;
67248;SDS011;63247;54.300;18.592;2024-03-08T01:09:37;82.27;;;30.80;;
67248;SDS011;63247;54.300;18.592;2024-03-08T01:12:03;89.97;;;31.67;;
67248;SDS011;63247;54.300;18.592;2024-03-08T01:14:28;87.95;;;32.47;;
67248;SDS011;63247;54.300;18.592;2024-03-08T01:16:55;89.60;;;34.83;;
67248;SDS011;63247;54.300;18.592;2024-03-08T01:19:20;88.30;;;33.20;;
67248;SDS011;63247;54.300;18.592;2024-03-08T01:21:46;87.87;;;33.10;;
67248;SDS011;63247;54.300;18.592;2024-03-08T01:24:11;89.33;;;33.53;;
67248;SDS011;63247;54.300;18.592;2024-03-08T01:26:36;92.53;;;33.83;;
67248;SDS011;63247;54.300;18.592;2024-03-08T01:29:02;81.90;;;32.10;;
67248;SDS011;63247;54.300;18.592;2024-03-08T01:31:31;91.97;;;34.85;;
67248;SDS011;63247;54.300;18.592;2024-03-08T01:33:57;88.57;;;33.40;;
67248;SDS011;63247;54.300;18.592;2024-03-08T01:36:23;86.80;;;34.22;;
67248;SDS011;63247;54.300;18.592;2024-03-08T01:38:49;83.77;;;32.53;;
67248;SDS011;63247;54.300;18.592;2024-03-08T01:41:15;81.20;;;30.58;;
67248;SDS011;63247;54.300;18.592;2024-03-08T01:43:42;86.18;;;32.25;;
67248;SDS011;63247;54.300;18.592;2024-03-08T01:46:08;87.03;;;32.37;;
67248;SDS011;63247;54.300;18.592;2024-03-08T01:48:36;83.72;;;32.83;;
67248;SDS011;63247;54.300;18.592;2024-03-08T01:51:01;84.73;;;32.40;;
67248;SDS011;63247;54.300;18.592;2024-03-08T01:53:27;83.10;;;31.70;;
67248;SDS011;63247;54.300;18.592;2024-03-08T01:55:56;83.50;;;31.90;;
67248;SDS011;63247;54.300;18.592;2024-03-08T01:58:23;88.68;;;32.95;;
67248;SDS011;63247;54.300;18.592;2024-03-08T02:00:49;85.15;;;32.40;;
67248;SDS011;63247;54.300;18.592;2024-03-08T02:03:15;88.95;;;32.17;;
67248;SDS011;63247;54.300;18.592;2024-03-08T02:05:41;88.90;;;33.47;;
67248;SDS011;63247;54.300;18.592;2024-03-08T02:08:08;91.55;;;33.22;;
67248;SDS011;63247;54.300;18.592;2024-03-08T02:10:39;83.13;;;33.25;;
67248;SDS011;63247;54.300;18.592;2024-03-08T02:13:07;81.93;;;31.75;;
67248;SDS011;63247;54.300;18.592;2024-03-08T02:18:16;82.97;;;30.97;;
67248;SDS011;63247;54.300;18.592;2024-03-08T02:20:42;84.32;;;31.65;;
67248;SDS011;63247;54.300;18.592;2024-03-08T02:23:08;84.28;;;30.48;;
67248;SDS011;63247;54.300;18.592;2024-03-08T02:25:34;84.23;;;29.63;;
67248;SDS011;63247;54.300;18.592;2024-03-08T02:28:00;79.20;;;28.63;;
67248;SDS011;63247;54.300;18.592;2024-03-08T02:30:25;73.77;;;28.20;;
67248;SDS011;63247;54.300;18.592;2024-03-08T02:32:54;75.93;;;27.08;;
67248;SDS011;63247;54.300;18.592;2024-03-08T02:35:20;78.87;;;29.30;;
67248;SDS011;63247;54.300;18.592;2024-03-08T02:37:46;88.13;;;32.08;;
67248;SDS011;63247;54.300;18.592;2024-03-08T02:40:12;81.97;;;30.75;;
67248;SDS011;63247;54.300;18.592;2024-03-08T02:42:38;85.03;;;30.43;;
67248;SDS011;63247;54.300;18.592;2024-03-08T02:45:04;91.22;;;32.72;;
67248;SDS011;63247;54.300;18.592;2024-03-08T02:47:30;85.77;;;32.57;;
67248;SDS011;63247;54.300;18.592;2024-03-08T02:49:56;89.03;;;31.52;;
67248;SDS011;63247;54.300;18.592;2024-03-08T02:52:22;82.43;;;29.27;;
67248;SDS011;63247;54.300;18.592;2024-03-08T02:54:47;87.57;;;31.03;;
67248;SDS011;63247;54.300;18.592;2024-03-08T02:57:13;85.82;;;30.73;;
67248;SDS011;63247;54.300;18.592;2024-03-08T02:59:39;86.15;;;30.63;;
67248;SDS011;63247;54.300;18.592;2024-03-08T03:02:05;87.63;;;32.57;;
67248;SDS011;63247;54.300;18.592;2024-03-08T03:04:31;87.18;;;30.95;;
67248;SDS011;63247;54.300;18.592;2024-03-08T03:06:59;87.00;;;30.85;;
67248;SDS011;63247;54.300;18.592;2024-03-08T03:09:25;81.43;;;27.97;;
67248;SDS011;63247;54.300;18.592;2024-03-08T03:11:53;70.55;;;26.90;;
67248;SDS011;63247;54.300;18.592;2024-03-08T03:14:20;69.22;;;26.02;;
67248;SDS011;63247;54.300;18.592;2024-03-08T03:16:46;71.25;;;25.40;;
67248;SDS011;63247;54.300;18.592;2024-03-08T03:19:11;69.90;;;25.80;;
67248;SDS011;63247;54.300;18.592;2024-03-08T03:21:37;75.10;;;26.55;;
67248;SDS011;63247;54.300;18.592;2024-03-08T03:24:03;75.20;;;26.77;;
67248;SDS011;63247;54.300;18.592;2024-03-08T03:26:30;70.50;;;26.23;;
67248;SDS011;63247;54.300;18.592;2024-03-08T03:28:56;72.00;;;26.10;;
67248;SDS011;63247;54.300;18.592;2024-03-08T03:31:22;78.38;;;26.20;;
67248;SDS011;63247;54.300;18.592;2024-03-08T03:33:49;75.10;;;25.92;;
67248;SDS011;63247;54.300;18.592;2024-03-08T03:36:16;73.70;;;26.67;;
67248;SDS011;63247;54.300;18.592;2024-03-08T03:38:43;79.13;;;26.50;;
67248;SDS011;63247;54.300;18.592;2024-03-08T03:41:08;77.30;;;26.88;;
67248;SDS011;63247;54.300;18.592;2024-03-08T03:43:39;73.43;;;27.48;;
67248;SDS011;63247;54.300;18.592;2024-03-08T03:46:07;81.73;;;27.90;;
67248;SDS011;63247;54.300;18.592;2024-03-08T03:48:35;82.20;;;29.27;;
67248;SDS011;63247;54.300;18.592;2024-03-08T03:51:01;79.87;;;27.43;;
67248;SDS011;63247;54.300;18.592;2024-03-08T03:53:26;79.10;;;28.10;;
67248;SDS011;63247;54.300;18.592;2024-03-08T03:55:52;83.07;;;28.33;;
67248;SDS011;63247;54.300;18.592;2024-03-08T03:58:17;77.43;;;27.97;;
67248;SDS011;63247;54.300;18.592;2024-03-08T04:00:47;81.82;;;27.95;;
67248;SDS011;63247;54.300;18.592;2024-03-08T04:03:13;79.25;;;27.75;;
67248;SDS011;63247;54.300;18.592;2024-03-08T04:05:39;83.93;;;28.33;;
67248;SDS011;63247;54.300;18.592;2024-03-08T04:08:04;84.50;;;29.50;;
67248;SDS011;63247;54.300;18.592;2024-03-08T04:10:29;83.17;;;28.63;;
67248;SDS011;63247;54.300;18.592;2024-03-08T04:12:55;82.90;;;28.42;;
67248;SDS011;63247;54.300;18.592;2024-03-08T04:15:21;87.73;;;29.13;;
67248;SDS011;63247;54.300;18.592;2024-03-08T04:17:48;89.82;;;29.77;;
67248;SDS011;63247;54.300;18.592;2024-03-08T04:20:13;93.63;;;29.92;;
67248;SDS011;63247;54.300;18.592;2024-03-08T04:22:39;88.28;;;28.60;;
67248;SDS011;63247;54.300;18.592;2024-03-08T04:25:05;87.67;;;29.27;;
67248;SDS011;63247;54.300;18.592;2024-03-08T04:27:32;87.22;;;28.45;;
67248;SDS011;63247;54.300;18.592;2024-03-08T04:29:58;91.78;;;28.23;;
67248;SDS011;63247;54.300;18.592;2024-03-08T04:32:24;88.00;;;28.23;;
67248;SDS011;63247;54.300;18.592;2024-03-08T04:34:50;78.67;;;25.23;;
67248;SDS011;63247;54.300;18.592;2024-03-08T04:37:15;80.20;;;25.20;;
67248;SDS011;63247;54.300;18.592;2024-03-08T04:39:46;84.23;;;27.33;;
67248;SDS011;63247;54.300;18.592;2024-03-08T04:42:11;81.70;;;26.35;;
67248;SDS011;63247;54.300;18.592;2024-03-08T04:44:38;80.80;;;24.90;;
67248;SDS011;63247;54.300;18.592;2024-03-08T04:47:04;67.47;;;22.83;;
67248;SDS011;63247;54.300;18.592;2024-03-08T04:49:31;68.22;;;22.50;;
67248;SDS011;63247;54.300;18.592;2024-03-08T04:51:59;61.70;;;21.15;;
67248;SDS011;63247;54.300;18.592;2024-03-08T04:54:29;60.10;;;21.08;;
67248;SDS011;63247;54.300;18.592;2024-03-08T04:56:55;59.63;;;19.50;;
67248;SDS011;63247;54.300;18.592;2024-03-08T04:59:20;56.53;;;19.42;;
67248;SDS011;63247;54.300;18.592;2024-03-08T05:01:46;57.90;;;19.20;;
67248;SDS011;63247;54.300;18.592;2024-03-08T05:04:12;58.55;;;19.20;;
67248;SDS011;63247;54.300;18.592;2024-03-08T05:06:38;56.58;;;18.35;;
67248;SDS011;63247;54.300;18.592;2024-03-08T05:09:03;55.70;;;18.73;;
67248;SDS011;63247;54.300;18.592;2024-03-08T05:11:41;59.40;;;19.25;;
67248;SDS011;63247;54.300;18.592;2024-03-08T05:14:08;53.63;;;18.50;;
67248;SDS011;63247;54.300;18.592;2024-03-08T05:16:34;55.55;;;19.02;;
67248;SDS011;63247;54.300;18.592;2024-03-08T05:19:00;52.60;;;17.85;;
67248;SDS011;63247;54.300;18.592;2024-03-08T05:21:25;51.00;;;16.57;;
67248;SDS011;63247;54.300;18.592;2024-03-08T05:23:51;53.87;;;17.67;;
67248;SDS011;63247;54.300;18.592;2024-03-08T05:26:16;53.13;;;17.77;;
67248;SDS011;63247;54.300;18.592;2024-03-08T05:28:42;57.43;;;18.37;;
67248;SDS011;63247;54.300;18.592;2024-03-08T05:31:07;55.65;;;18.80;;
67248;SDS011;63247;54.300;18.592;2024-03-08T05:33:33;57.27;;;18.23;;
67248;SDS011;63247;54.300;18.592;2024-03-08T05:36:02;48.35;;;16.40;;
67248;SDS011;63247;54.300;18.592;2024-03-08T05:38:27;48.83;;;17.13;;
67248;SDS011;63247;54.300;18.592;2024-03-08T05:40:53;52.93;;;17.23;;
67248;SDS011;63247;54.300;18.592;2024-03-08T05:43:19;50.90;;;16.48;;
67248;SDS011;63247;54.300;18.592;2024-03-08T05:45:45;52.50;;;16.23;;
67248;SDS011;63247;54.300;18.592;2024-03-08T05:48:11;51.67;;;16.30;;
67248;SDS011;63247;54.300;18.592;2024-03-08T05:50:38;49.90;;;16.45;;
67248;SDS011;63247;54.300;18.592;2024-03-08T05:53:03;49.57;;;15.40;;
67248;SDS011;63247;54.300;18.592;2024-03-08T05:55:32;52.17;;;15.70;;
67248;SDS011;63247;54.300;18.592;2024-03-08T05:58:01;54.00;;;16.55;;
67248;SDS011;63247;54.300;18.592;2024-03-08T06:00:27;51.65;;;16.38;;
67248;SDS011;63247;54.300;18.592;2024-03-08T06:02:52;47.87;;;15.77;;
67248;SDS011;63247;54.300;18.592;2024-03-08T06:05:18;50.73;;;15.93;;
67248;SDS011;63247;54.300;18.592;2024-03-08T06:07:44;56.53;;;16.27;;
67248;SDS011;63247;54.300;18.592;2024-03-08T06:10:10;50.67;;;16.30;;
67248;SDS011;63247;54.300;18.592;2024-03-08T06:12:37;52.53;;;16.70;;
67248;SDS011;63247;54.300;18.592;2024-03-08T06:15:09;52.35;;;16.65;;
67248;SDS011;63247;54.300;18.592;2024-03-08T06:17:38;53.17;;;17.58;;
67248;SDS011;63247;54.300;18.592;2024-03-08T06:20:03;50.37;;;17.23;;
67248;SDS011;63247;54.300;18.592;2024-03-08T06:22:35;52.80;;;17.60;;
67248;SDS011;63247;54.300;18.592;2024-03-08T06:25:09;58.05;;;19.00;;
67248;SDS011;63247;54.300;18.592;2024-03-08T06:27:39;52.70;;;18.02;;
67248;SDS011;63247;54.300;18.592;2024-03-08T06:30:07;56.67;;;17.88;;
67248;SDS011;63247;54.300;18.592;2024-03-08T06:32:37;60.67;;;18.20;;
67248;SDS011;63247;54.300;18.592;2024-03-08T06:35:06;63.58;;;17.38;;
67248;SDS011;63247;54.300;18.592;2024-03-08T06:37:35;61.50;;;16.48;;
67248;SDS011;63247;54.300;18.592;2024-03-08T06:40:00;52.38;;;15.70;;
67248;SDS011;63247;54.300;18.592;2024-03-08T06:42:28;54.15;;;15.57;;
67248;SDS011;63247;54.300;18.592;2024-03-08T06:44:54;67.37;;;16.17;;
67248;SDS011;63247;54.300;18.592;2024-03-08T06:47:21;222.68;;;23.75;;
67248;SDS011;63247;54.300;18.592;2024-03-08T06:49:46;220.70;;;24.17;;
67248;SDS011;63247;54.300;18.592;2024-03-08T06:52:12;283.60;;;27.25;;
67248;SDS011;63247;54.300;18.592;2024-03-08T06:54:38;147.40;;;18.40;;
67248;SDS011;63247;54.300;18.592;2024-03-08T06:57:04;173.95;;;19.85;;
67248;SDS011;63247;54.300;18.592;2024-03-08T06:59:30;509.45;;;35.30;;
67248;SDS011;63247;54.300;18.592;2024-03-08T07:02:01;238.50;;;22.70;;
67248;SDS011;63247;54.300;18.592;2024-03-08T07:04:27;565.22;;;39.67;;
67248;SDS011;63247;54.300;18.592;2024-03-08T07:06:57;242.38;;;25.00;;
67248;SDS011;63247;54.300;18.592;2024-03-08T07:09:23;508.83;;;32.42;;
67248;SDS011;63247;54.300;18.592;2024-03-08T07:11:49;41.50;;;14.00;;
67248;SDS011;63247;54.300;18.592;2024-03-08T07:14:21;31.33;;;13.33;;
67248;SDS011;63247;54.300;18.592;2024-03-08T07:16:47;30.55;;;12.32;;
67248;SDS011;63247;54.300;18.592;2024-03-08T07:19:13;29.40;;;12.15;;
67248;SDS011;63247;54.300;18.592;2024-03-08T07:21:39;28.88;;;13.18;;
67248;SDS011;63247;54.300;18.592;2024-03-08T07:24:04;29.93;;;12.73;;
67248;SDS011;63247;54.300;18.592;2024-03-08T07:26:45;25.88;;;12.38;;
67248;SDS011;63247;54.300;18.592;2024-03-08T07:29:18;29.80;;;13.17;;
67248;SDS011;63247;54.300;18.592;2024-03-08T07:31:44;28.75;;;14.05;;
67248;SDS011;63247;54.300;18.592;2024-03-08T07:34:16;28.30;;;13.05;;
67248;SDS011;63247;54.300;18.592;2024-03-08T07:36:43;26.15;;;12.07;;
67248;SDS011;63247;54.300;18.592;2024-03-08T07:39:08;26.00;;;11.73;;
67248;SDS011;63247;54.300;18.592;2024-03-08T07:41:37;23.88;;;11.00;;
67248;SDS011;63247;54.300;18.592;2024-03-08T07:44:06;25.70;;;11.48;;
67248;SDS011;63247;54.300;18.592;2024-03-08T07:46:32;22.57;;;11.20;;
67248;SDS011;63247;54.300;18.592;2024-03-08T07:48:59;25.60;;;11.98;;
67248;SDS011;63247;54.300;18.592;2024-03-08T07:51:25;24.77;;;11.75;;
67248;SDS011;63247;54.300;18.592;2024-03-08T07:53:51;22.38;;;11.00;;
67248;SDS011;63247;54.300;18.592;2024-03-08T07:56:16;25.00;;;11.77;;
67248;SDS011;63247;54.300;18.592;2024-03-08T07:58:43;24.90;;;11.13;;
67248;SDS011;63247;54.300;18.592;2024-03-08T08:01:19;21.80;;;11.18;;
67248;SDS011;63247;54.300;18.592;2024-03-08T08:03:45;24.92;;;11.48;;
67248;SDS011;63247;54.300;18.592;2024-03-08T08:06:10;24.93;;;11.80;;
67248;SDS011;63247;54.300;18.592;2024-03-08T08:08:43;22.88;;;11.50;;
67248;SDS011;63247;54.300;18.592;2024-03-08T08:11:09;23.52;;;11.40;;
67248;SDS011;63247;54.300;18.592;2024-03-08T08:13:36;21.45;;;10.52;;
67248;SDS011;63247;54.300;18.592;2024-03-08T08:16:03;24.17;;;11.07;;
67248;SDS011;63247;54.300;18.592;2024-03-08T08:18:30;23.77;;;11.30;;
67248;SDS011;63247;54.300;18.592;2024-03-08T08:20:56;23.50;;;11.03;;
67248;SDS011;63247;54.300;18.592;2024-03-08T08:23:21;22.42;;;11.27;;
67248;SDS011;63247;54.300;18.592;2024-03-08T08:25:47;27.77;;;12.57;;
67248;SDS011;63247;54.300;18.592;2024-03-08T08:28:18;24.92;;;12.57;;
67248;SDS011;63247;54.300;18.592;2024-03-08T08:30:44;25.93;;;12.57;;
67248;SDS011;63247;54.300;18.592;2024-03-08T08:33:10;25.92;;;12.05;;
67248;SDS011;63247;54.300;18.592;2024-03-08T08:35:38;28.02;;;12.35;;
67248;SDS011;63247;54.300;18.592;2024-03-08T08:38:04;25.30;;;12.40;;
67248;SDS011;63247;54.300;18.592;2024-03-08T08:40:30;26.75;;;11.77;;
67248;SDS011;63247;54.300;18.592;2024-03-08T08:42:58;25.95;;;12.10;;
67248;SDS011;63247;54.300;18.592;2024-03-08T08:45:23;26.53;;;11.93;;
67248;SDS011;63247;54.300;18.592;2024-03-08T08:47:49;24.80;;;11.85;;
67248;SDS011;63247;54.300;18.592;2024-03-08T08:50:14;26.63;;;11.93;;
67248;SDS011;63247;54.300;18.592;2024-03-08T08:52:41;24.60;;;10.77;;
67248;SDS011;63247;54.300;18.592;2024-03-08T08:55:09;28.57;;;11.63;;
67248;SDS011;63247;54.300;18.592;2024-03-08T08:57:39;25.88;;;11.50;;
67248;SDS011;63247;54.300;18.592;2024-03-08T09:00:05;22.95;;;10.15;;
67248;SDS011;63247;54.300;18.592;2024-03-08T09:02:33;21.88;;;10.18;;
67248;SDS011;63247;54.300;18.592;2024-03-08T09:04:59;24.07;;;10.50;;
67248;SDS011;63247;54.300;18.592;2024-03-08T09:07:26;23.00;;;10.93;;
67248;SDS011;63247;54.300;18.592;2024-03-08T09:09:52;22.85;;;10.18;;
67248;SDS011;63247;54.300;18.592;2024-03-08T09:12:22;23.80;;;9.98;;
67248;SDS011;63247;54.300;18.592;2024-03-08T09:14:48;26.38;;;10.27;;
67248;SDS011;63247;54.300;18.592;2024-03-08T09:17:14;27.20;;;10.13;;
67248;SDS011;63247;54.300;18.592;2024-03-08T09:19:42;23.63;;;10.13;;
67248;SDS011;63247;54.300;18.592;2024-03-08T09:22:08;23.17;;;10.40;;
67248;SDS011;63247;54.300;18.592;2024-03-08T09:24:34;22.43;;;10.17;;
67248;SDS011;63247;54.300;18.592;2024-03-08T09:26:59;26.13;;;9.98;;
67248;SDS011;63247;54.300;18.592;2024-03-08T09:29:25;24.85;;;10.63;;
67248;SDS011;63247;54.300;18.592;2024-03-08T09:31:50;23.57;;;10.30;;
67248;SDS011;63247;54.300;18.592;2024-03-08T09:34:16;23.45;;;10.63;;
67248;SDS011;63247;54.300;18.592;2024-03-08T09:36:43;24.73;;;10.48;;
67248;SDS011;63247;54.300;18.592;2024-03-08T09:39:09;24.07;;;11.17;;
67248;SDS011;63247;54.300;18.592;2024-03-08T09:41:34;28.57;;;11.47;;
67248;SDS011;63247;54.300;18.592;2024-03-08T09:44:00;25.65;;;9.85;;
67248;SDS011;63247;54.300;18.592;2024-03-08T09:46:26;19.52;;;9.35;;
67248;SDS011;63247;54.300;18.592;2024-03-08T09:48:55;27.02;;;10.23;;
67248;SDS011;63247;54.300;18.592;2024-03-08T09:51:26;20.57;;;8.50;;
67248;SDS011;63247;54.300;18.592;2024-03-08T09:53:53;20.48;;;9.48;;
67248;SDS011;63247;54.300;18.592;2024-03-08T09:56:19;19.20;;;8.57;;
67248;SDS011;63247;54.300;18.592;2024-03-08T09:58:46;18.90;;;8.02;;
67248;SDS011;63247;54.300;18.592;2024-03-08T10:01:41;20.30;;;8.45;;
67248;SDS011;63247;54.300;18.592;2024-03-08T10:04:06;21.50;;;9.00;;
67248;SDS011;63247;54.300;18.592;2024-03-08T10:06:32;18.67;;;7.38;;
67248;SDS011;63247;54.300;18.592;2024-03-08T10:08:58;16.70;;;7.87;;
67248;SDS011;63247;54.300;18.592;2024-03-08T10:11:26;17.98;;;7.93;;
67248;SDS011;63247;54.300;18.592;2024-03-08T10:13:52;21.07;;;9.20;;
67248;SDS011;63247;54.300;18.592;2024-03-08T10:16:17;23.10;;;8.18;;
67248;SDS011;63247;54.300;18.592;2024-03-08T10:18:44;16.63;;;7.90;;
67248;SDS011;63247;54.300;18.592;2024-03-08T10:21:10;19.30;;;7.17;;
67248;SDS011;63247;54.300;18.592;2024-03-08T10:23:36;17.90;;;7.70;;
67248;SDS011;63247;54.300;18.592;2024-03-08T10:26:09;18.33;;;8.13;;
67248;SDS011;63247;54.300;18.592;2024-03-08T10:28:40;19.42;;;6.93;;
67248;SDS011;63247;54.300;18.592;2024-03-08T10:31:15;15.88;;;7.05;;
67248;SDS011;63247;54.300;18.592;2024-03-08T10:33:42;14.05;;;6.18;;
67248;SDS011;63247;54.300;18.592;2024-03-08T10:36:08;18.37;;;7.07;;
67248;SDS011;63247;54.300;18.592;2024-03-08T10:38:37;18.45;;;7.00;;
67248;SDS011;63247;54.300;18.592;2024-03-08T10:41:07;15.40;;;6.38;;
67248;SDS011;63247;54.300;18.592;2024-03-08T10:44:21;14.63;;;6.70;;
67248;SDS011;63247;54.300;18.592;2024-03-08T10:49:54;18.30;;;6.70;;
67248;SDS011;63247;54.300;18.592;2024-03-08T10:52:20;17.58;;;6.70;;
67248;SDS011;63247;54.300;18.592;2024-03-08T10:54:47;16.10;;;6.57;;
67248;SDS011;63247;54.300;18.592;2024-03-08T10:57:13;20.25;;;6.10;;
67248;SDS011;63247;54.300;18.592;2024-03-08T10:59:42;16.55;;;5.97;;
67248;SDS011;63247;54.300;18.592;2024-03-08T11:02:10;17.53;;;6.50;;
67248;SDS011;63247;54.300;18.592;2024-03-08T11:04:37;19.65;;;7.32;;
67248;SDS011;63247;54.300;18.592;2024-03-08T11:07:03;18.33;;;7.13;;
67248;SDS011;63247;54.300;18.592;2024-03-08T11:09:32;16.65;;;6.53;;
67248;SDS011;63247;54.300;18.592;2024-03-08T11:15:00;15.38;;;6.75;;
67248;SDS011;63247;54.300;18.592;2024-03-08T11:20:08;14.93;;;6.30;;
67248;SDS011;63247;54.300;18.592;2024-03-08T11:22:40;17.17;;;6.50;;
67248;SDS011;63247;54.300;18.592;2024-03-08T11:25:13;17.00;;;6.40;;
67248;SDS011;63247;54.300;18.592;2024-03-08T11:28:14;19.40;;;6.93;;
67248;SDS011;63247;54.300;18.592;2024-03-08T11:33:23;16.70;;;7.20;;
67248;SDS011;63247;54.300;18.592;2024-03-08T11:35:51;20.95;;;7.90;;
67248;SDS011;63247;54.300;18.592;2024-03-08T11:38:17;23.40;;;8.60;;
67248;SDS011;63247;54.300;18.592;2024-03-08T11:40:45;23.83;;;8.38;;
67248;SDS011;63247;54.300;18.592;2024-03-08T11:43:15;21.40;;;7.60;;
67248;SDS011;63247;54.300;18.592;2024-03-08T11:45:41;20.70;;;8.32;;
67248;SDS011;63247;54.300;18.592;2024-03-08T11:48:06;21.80;;;8.13;;
67248;SDS011;63247;54.300;18.592;2024-03-08T11:50:32;19.50;;;7.47;;
67248;SDS011;63247;54.300;18.592;2024-03-08T11:53:01;25.50;;;9.95;;
67248;SDS011;63247;54.300;18.592;2024-03-08T11:55:33;22.00;;;9.40;;
67248;SDS011;63247;54.300;18.592;2024-03-08T11:58:01;24.77;;;10.40;;
67248;SDS011;63247;54.300;18.592;2024-03-08T12:00:28;24.33;;;9.63;;
67248;SDS011;63247;54.300;18.592;2024-03-08T12:03:06;21.35;;;9.15;;
67248;SDS011;63247;54.300;18.592;2024-03-08T12:05:34;21.73;;;8.23;;
67248;SDS011;63247;54.300;18.592;2024-03-08T12:08:01;22.50;;;9.37;;
67248;SDS011;63247;54.300;18.592;2024-03-08T12:10:27;20.70;;;8.85;;
67248;SDS011;63247;54.300;18.592;2024-03-08T12:12:53;23.13;;;9.30;;
67248;SDS011;63247;54.300;18.592;2024-03-08T12:15:21;27.15;;;9.18;;
67248;SDS011;63247;54.300;18.592;2024-03-08T12:17:48;23.30;;;8.52;;
67248;SDS011;63247;54.300;18.592;2024-03-08T12:20:19;25.17;;;9.43;;
67248;SDS011;63247;54.300;18.592;2024-03-08T12:22:49;25.02;;;9.38;;
67248;SDS011;63247;54.300;18.592;2024-03-08T12:25:17;27.07;;;9.10;;
67248;SDS011;63247;54.300;18.592;2024-03-08T12:27:43;25.38;;;9.57;;
67248;SDS011;63247;54.300;18.592;2024-03-08T12:30:21;24.13;;;9.87;;
67248;SDS011;63247;54.300;18.592;2024-03-08T12:32:58;25.58;;;9.63;;
67248;SDS011;63247;54.300;18.592;2024-03-08T12:35:25;23.05;;;8.15;;
67248;SDS011;63247;54.300;18.592;2024-03-08T12:37:52;26.20;;;9.23;;
67248;SDS011;63247;54.300;18.592;2024-03-08T12:40:19;19.57;;;9.03;;
67248;SDS011;63247;54.300;18.592;2024-03-08T12:42:50;26.85;;;9.30;;
67248;SDS011;63247;54.300;18.592;2024-03-08T12:45:15;24.63;;;8.30;;
67248;SDS011;63247;54.300;18.592;2024-03-08T12:47:41;21.75;;;9.23;;
67248;SDS011;63247;54.300;18.592;2024-03-08T12:50:07;26.37;;;8.93;;
67248;SDS011;63247;54.300;18.592;2024-03-08T12:52:34;20.67;;;8.68;;
67248;SDS011;63247;54.300;18.592;2024-03-08T12:55:00;31.73;;;8.95;;
67248;SDS011;63247;54.300;18.592;2024-03-08T12:57:28;24.98;;;9.55;;
67248;SDS011;63247;54.300;18.592;2024-03-08T12:59:54;27.08;;;8.85;;
67248;SDS011;63247;54.300;18.592;2024-03-08T13:02:19;24.37;;;9.80;;
67248;SDS011;63247;54.300;18.592;2024-03-08T13:04:46;23.50;;;9.25;;
67248;SDS011;63247;54.300;18.592;2024-03-08T13:07:20;24.58;;;9.40;;
67248;SDS011;63247;54.300;18.592;2024-03-08T13:09:46;23.98;;;9.23;;
67248;SDS011;63247;54.300;18.592;2024-03-08T13:12:11;30.73;;;10.77;;
67248;SDS011;63247;54.300;18.592;2024-03-08T13:14:37;27.87;;;10.67;;
67248;SDS011;63247;54.300;18.592;2024-03-08T13:17:02;34.27;;;13.63;;
67248;SDS011;63247;54.300;18.592;2024-03-08T13:19:29;33.33;;;14.30;;
67248;SDS011;63247;54.300;18.592;2024-03-08T13:21:55;33.03;;;13.15;;
67248;SDS011;63247;54.300;18.592;2024-03-08T13:24:21;39.33;;;14.50;;
67248;SDS011;63247;54.300;18.592;2024-03-08T13:26:47;36.08;;;14.02;;
67248;SDS011;63247;54.300;18.592;2024-03-08T13:29:12;33.77;;;13.50;;
67248;SDS011;63247;54.300;18.592;2024-03-08T13:31:39;37.63;;;13.68;;
67248;SDS011;63247;54.300;18.592;2024-03-08T13:34:05;38.13;;;13.60;;
67248;SDS011;63247;54.300;18.592;2024-03-08T13:36:30;35.23;;;13.80;;
67248;SDS011;63247;54.300;18.592;2024-03-08T13:39:04;41.00;;;15.43;;
67248;SDS011;63247;54.300;18.592;2024-03-08T13:41:35;34.00;;;12.85;;
67248;SDS011;63247;54.300;18.592;2024-03-08T13:44:01;41.70;;;13.90;;
67248;SDS011;63247;54.300;18.592;2024-03-08T13:46:26;35.17;;;14.40;;
67248;SDS011;63247;54.300;18.592;2024-03-08T13:48:52;38.97;;;14.87;;
67248;SDS011;63247;54.300;18.592;2024-03-08T13:51:19;32.90;;;13.38;;
67248;SDS011;63247;54.300;18.592;2024-03-08T13:53:47;36.75;;;14.20;;
67248;SDS011;63247;54.300;18.592;2024-03-08T13:56:12;39.87;;;14.37;;
67248;SDS011;63247;54.300;18.592;2024-03-08T13:58:40;35.83;;;13.27;;
67248;SDS011;63247;54.300;18.592;2024-03-08T14:01:05;32.67;;;12.70;;
67248;SDS011;63247;54.300;18.592;2024-03-08T14:03:36;32.40;;;11.85;;
67248;SDS011;63247;54.300;18.592;2024-03-08T14:06:01;37.67;;;12.70;;
67248;SDS011;63247;54.300;18.592;2024-03-08T14:08:28;39.65;;;15.40;;
67248;SDS011;63247;54.300;18.592;2024-03-08T14:10:55;37.17;;;14.73;;
67248;SDS011;63247;54.300;18.592;2024-03-08T14:13:20;35.00;;;13.93;;
67248;SDS011;63247;54.300;18.592;2024-03-08T14:15:46;27.00;;;11.60;;
67248;SDS011;63247;54.300;18.592;2024-03-08T14:18:11;27.65;;;11.82;;
67248;SDS011;63247;54.300;18.592;2024-03-08T14:20:38;25.67;;;10.47;;
67248;SDS011;63247;54.300;18.592;2024-03-08T14:23:03;22.88;;;9.35;;
67248;SDS011;63247;54.300;18.592;2024-03-08T14:25:33;24.80;;;9.20;;